ADDS METAR Data INFO
IDs: Format: Raw Decoded Include TAF

Data at: 0213 UTC 17 Aug 2018

PAAK 161656Z AUTO 18006KT 10SM OVC038 08/05 A2995 RMK AO2 SLP143 T00830050 PNO $
PAAK 161556Z AUTO 16005KT 10SM OVC040 08/06 A2996 RMK AO2 SLP146 T00780056 PNO $
PAAK 161456Z AUTO 16005KT 10SM OVC036 08/05 A2998 RMK AO2 SLP154 6//// T00780050 56021 PNO $
PAAK 161356Z AUTO 16005KT 10SM FEW037 08/05 A3001 RMK AO2 SLP163 T00780050 PNO $
PAAK 161256Z AUTO 17003KT 10SM CLR 07/05 A3002 RMK AO2 SLP167 T00720050 PNO $
PAAK 161056Z AUTO 00000KT 10SM FEW100 07/05 A3006 RMK AO2 SLP180 T00720050 PNO $
PAAK 160956Z AUTO 00000KT 10SM CLR 08/05 A3008 RMK AO2 SLP186 T00780050 PNO $
PAAK 160856Z AUTO 00000KT 10SM CLR 08/06 A3009 RMK AO2 SLP191 6//// T00830061 401220072 58009 PNO $
PAAK 160756Z AUTO 17003KT 10SM CLR 08/06 A3011 RMK AO2 SLP196 T00830061 PNO $
PAAK 160737Z AUTO 16004KT 10SM CLR 09/06 A3011 RMK AO2 PNO $
PAAK 160725Z AUTO 17004KT 1SM HZ CLR 09/06 A3011 RMK AO2 PNO $
PAAK 160717Z AUTO 13004KT 1 3/4SM HZ CLR 09/06 A3011 RMK AO2 PNO $
PAAK 160656Z AUTO 00000KT 10SM CLR 09/06 A3011 RMK AO2 SLP197 T00940061 PNO $
PAAK 160556Z AUTO 19003KT 10SM CLR 10/06 A3012 RMK AO2 SLP200 6//// T01000056 10122 20100 56009 PNO $
PAAK 160456Z AUTO 08004KT 10SM CLR 10/06 A3012 RMK AO2 SLP201 T01000056 PNO $
PAAK 160356Z AUTO 27008KT 10SM CLR 12/05 A3013 RMK AO2 SLP205 T01170050 PNO $
PAAK 160256Z AUTO 29007KT 10SM CLR 12/05 A3015 RMK AO2 SLP210 6//// T01170050 56015 PNO $
PAAK 160156Z AUTO 28008KT 10SM CLR 12/05 A3016 RMK AO2 SLP214 T01170050 PNO $
PAAK 160056Z AUTO 27009KT 10SM CLR 11/06 A3017 RMK AO2 SLP218 T01060056 PNO $
PAAK 152356Z AUTO 27008KT 10SM BKN046 11/07 A3019 RMK AO2 SLP224 6//// T01060067 10117 20083 58009 PNO $
PAAK 152256Z AUTO 28009KT 10SM FEW039 BKN046 11/07 A3021 RMK AO2 SLP231 T01060067 PNO $
PAAK 152156Z AUTO 28011KT 10SM SCT044 11/07 A3021 RMK AO2 SLP231 T01060072 PNO $
PAAK 152056Z AUTO 27009KT 10SM FEW035 OVC044 11/07 A3021 RMK AO2 SLP233 6//// T01060067 57004 PNO $
PAAK 151956Z AUTO 27008KT 10SM SCT013 10/07 A3022 RMK AO2 SLP234 T01000067 PNO $
PAAK 151856Z AUTO 28008KT 10SM SCT024 BKN035 BKN042 09/07 A3022 RMK AO2 SLP235 T00940067 PNO $
PAAK 151756Z AUTO 28006KT 10SM CLR 08/07 A3023 RMK AO2 SLP237 6//// T00830067 10089 20072 55001 PNO $
PAAK 151656Z AUTO 28006KT 10SM CLR 07/06 A3022 RMK AO2 SLP235 T00720061 PNO $
PAAK 151628Z AUTO 27008KT 10SM SCT029 08/06 A3022 RMK AO2 PNO $
PAAK 151614Z AUTO 28008KT 10SM BKN029 BKN034 08/07 A3022 RMK AO2 PNO $
PAAK 151556Z AUTO 29011KT 10SM OVC031 08/07 A3022 RMK AO2 SLP236 T00830067 PNO $
PAAK 151518Z AUTO 28010KT 10SM OVC029 08/07 A3023 RMK AO2 PNO $
PAAK 151456Z AUTO 28010KT 10SM FEW007 BKN033 08/07 A3023 RMK AO2 SLP238 6//// T00830072 56007 PNO $
PAAK 151443Z AUTO 29009KT 10SM FEW009 SCT032 08/07 A3023 RMK AO2 PNO $
PAAK 151420Z AUTO 30010KT 10SM BKN009 BKN017 OVC032 09/08 A3024 RMK AO2 CIG 005V013 PNO $